Time;durP1;ratioP1;P1;durP2;ratioP2;P2;SDS_P1;SDS_P2;PMS_P1;PMS_P2;Temp;Humidity;BMP_temperature;BMP_pressure;BME280_temperature;BME280_humidity;BME280_pressure;Samples;Min_cycle;Max_cycle;Signal;HPM_P1;HPM_P2
2022/07/09 00:02:21;;;;;;;;;;;18.50;4.70;;;;;;10411299;28;85132;-50
2022/07/09 00:07:21;;;;;;;;;;;18.50;25.60;;;;;;10410620;28;86292;-50
2022/07/09 00:12:22;;;;;;;;;;;18.50;29.80;;;;;;10410959;28;84823;-50
2022/07/09 00:17:23;;;;;;;;;;;18.40;36.90;;;;;;10410412;28;85169;-47
2022/07/09 00:22:23;;;;;;;;;;;18.40;38.60;;;;;;10401407;28;84100;-52
2022/07/09 00:27:24;;;;;;;;;;;18.40;47.30;;;;;;10365002;28;84291;-49
2022/07/09 00:32:24;;;;;;;;;;;18.40;45.60;;;;;;10368217;28;84129;-48
2022/07/09 00:37:25;;;;;;;;;;;18.40;53.00;;;;;;10367199;28;86303;-47
2022/07/09 00:42:25;;;;;;;;;;;18.40;53.70;;;;;;10368376;28;84775;-43
2022/07/09 00:47:26;;;;;;;;;;;18.40;73.10;;;;;;10385615;28;85451;-43
2022/07/09 00:52:27;;;;;;;;;;;18.40;64.80;;;;;;10410014;28;85957;-47
2022/07/09 00:57:28;;;;;;;;;;;18.30;79.80;;;;;;10390274;28;84156;-51
2022/07/09 01:02:29;;;;;;;;;;;18.30;99.90;;;;;;10385248;28;84361;-47
2022/07/09 01:07:29;;;;;;;;;;;18.20;99.90;;;;;;10393247;28;84657;-49
2022/07/09 01:12:30;;;;;;;;;;;18.10;99.90;;;;;;10399511;28;84208;-49
2022/07/09 01:17:38;;;;;;;;;;;18.00;99.90;;;;;;10408095;28;84062;-48
2022/07/09 01:22:40;;;;;;;;;;;18.00;99.90;;;;;;10390278;28;84400;-46
2022/07/09 01:27:41;;;;;;;;;;;17.90;99.90;;;;;;10407289;28;84817;-50
2022/07/09 01:32:41;;;;;;;;;;;17.70;99.90;;;;;;10409474;28;84094;-47
2022/07/09 01:37:42;;;;;;;;;;;17.70;99.90;;;;;;10390663;28;84036;-48
2022/07/09 01:42:42;;;;;;;;;;;17.70;99.90;;;;;;10406452;28;85805;-49
2022/07/09 01:47:43;;;;;;;;;;;17.70;99.90;;;;;;10406575;28;84215;-47
2022/07/09 01:52:43;;;;;;;;;;;17.60;99.90;;;;;;10408305;28;83965;-45
2022/07/09 01:57:44;;;;;;;;;;;17.60;99.90;;;;;;10407425;28;84360;-45
2022/07/09 02:02:44;;;;;;;;;;;17.60;99.90;;;;;;10414039;28;85152;-47
2022/07/09 02:07:46;;;;;;;;;;;17.50;99.90;;;;;;10413314;28;84860;-43
2022/07/09 02:12:47;;;;;;;;;;;17.50;99.90;;;;;;10413794;28;84951;-48
2022/07/09 02:17:47;;;;;;;;;;;17.40;99.90;;;;;;10412726;28;84295;-54
2022/07/09 02:22:48;;;;;;;;;;;17.40;99.90;;;;;;10413162;28;84905;-51
2022/07/09 02:27:48;;;;;;;;;;;17.40;99.90;;;;;;10413144;28;84202;-46
2022/07/09 02:32:49;;;;;;;;;;;17.40;99.90;;;;;;10413123;28;84930;-47
2022/07/09 02:37:49;;;;;;;;;;;17.40;99.90;;;;;;10394263;28;85053;-47
2022/07/09 02:42:50;;;;;;;;;;;17.30;99.90;;;;;;10376196;28;84975;-46
2022/07/09 02:47:50;;;;;;;;;;;17.30;99.90;;;;;;10358479;28;84964;-47
2022/07/09 02:52:51;;;;;;;;;;;17.30;99.90;;;;;;10372168;28;84387;-47
2022/07/09 02:57:51;;;;;;;;;;;17.20;99.90;;;;;;10360012;28;84892;-50
2022/07/09 03:02:52;;;;;;;;;;;17.20;99.90;;;;;;10361161;28;84238;-48
2022/07/09 03:07:52;;;;;;;;;;;17.20;99.90;;;;;;10370001;28;89558;-45
2022/07/09 03:12:53;;;;;;;;;;;17.20;99.90;;;;;;10369694;28;84003;-48
2022/07/09 03:17:53;;;;;;;;;;;17.10;99.90;;;;;;10365951;28;86211;-46
2022/07/09 03:22:54;;;;;;;;;;;17.10;99.90;;;;;;10361144;28;84140;-46
2022/07/09 03:27:55;;;;;;;;;;;17.00;99.90;;;;;;10369360;28;91114;-44
2022/07/09 03:32:55;;;;;;;;;;;17.00;99.90;;;;;;10369772;28;84954;-47
2022/07/09 03:37:56;;;;;;;;;;;17.10;99.90;;;;;;10369441;28;84924;-47
2022/07/09 03:42:56;;;;;;;;;;;17.10;99.90;;;;;;10352095;28;84134;-48
2022/07/09 03:47:57;;;;;;;;;;;17.10;99.90;;;;;;10368491;28;85273;-46
2022/07/09 03:52:57;;;;;;;;;;;17.10;99.90;;;;;;10368762;28;85096;-48
2022/07/09 03:57:58;;;;;;;;;;;17.20;99.90;;;;;;10368502;28;84994;-47
2022/07/09 04:02:58;;;;;;;;;;;17.20;99.90;;;;;;10367640;28;84168;-50
2022/07/09 04:07:59;;;;;;;;;;;17.20;99.90;;;;;;10349818;28;84391;-48
2022/07/09 04:13:00;;;;;;;;;;;17.20;99.90;;;;;;10367794;28;84137;-47
2022/07/09 04:18:00;;;;;;;;;;;17.20;99.90;;;;;;10367241;28;84159;-46
2022/07/09 04:23:01;;;;;;;;;;;17.10;99.90;;;;;;10365833;28;85249;-45
2022/07/09 04:28:01;;;;;;;;;;;17.20;99.90;;;;;;10366933;28;84246;-46
2022/07/09 04:33:02;;;;;;;;;;;17.20;99.90;;;;;;10367063;28;84244;-50
2022/07/09 04:38:03;;;;;;;;;;;17.30;99.90;;;;;;10359730;28;84229;-48
2022/07/09 04:43:03;;;;;;;;;;;17.30;99.90;;;;;;10365572;28;85275;-48
2022/07/09 04:48:04;;;;;;;;;;;17.30;99.90;;;;;;10389511;28;89634;-48
2022/07/09 04:53:04;;;;;;;;;;;17.30;99.90;;;;;;10397483;28;85028;-48
2022/07/09 04:58:05;;;;;;;;;;;17.30;99.90;;;;;;10407237;28;84054;-47
2022/07/09 05:03:05;;;;;;;;;;;17.30;99.90;;;;;;10379162;28;84506;-47
2022/07/09 05:08:06;;;;;;;;;;;17.20;99.90;;;;;;10407284;28;84252;-47
2022/07/09 05:13:06;;;;;;;;;;;17.30;99.90;;;;;;10407037;28;84294;-50
2022/07/09 05:18:07;;;;;;;;;;;17.30;99.90;;;;;;10378486;28;84999;-47
2022/07/09 05:23:07;;;;;;;;;;;17.40;99.90;;;;;;10352689;28;84919;-48
2022/07/09 05:28:08;;;;;;;;;;;17.50;99.90;;;;;;10344829;28;85510;-48
2022/07/09 05:33:09;;;;;;;;;;;17.60;99.90;;;;;;10367755;28;84121;-49
2022/07/09 05:38:09;;;;;;;;;;;17.70;99.90;;;;;;10378843;28;85055;-50
2022/07/09 05:43:10;;;;;;;;;;;17.70;99.90;;;;;;10404640;28;90157;-49
2022/07/09 05:48:10;;;;;;;;;;;17.80;99.90;;;;;;10412284;28;84846;-48
2022/07/09 05:53:11;;;;;;;;;;;17.90;99.90;;;;;;10413395;28;84107;-46
2022/07/09 05:58:11;;;;;;;;;;;18.00;99.90;;;;;;10412976;28;84869;-50
2022/07/09 06:03:12;;;;;;;;;;;18.10;99.90;;;;;;10413610;28;84051;-48
2022/07/09 06:08:12;;;;;;;;;;;18.40;99.90;;;;;;10367251;28;84785;-54
2022/07/09 06:13:13;;;;;;;;;;;18.40;99.90;;;;;;10344100;28;86835;-59
2022/07/09 06:18:13;;;;;;;;;;;18.40;49.80;;;;;;10348657;28;87124;-58
2022/07/09 06:23:14;;;;;;;;;;;18.40;62.80;;;;;;10366276;28;84151;-57
2022/07/09 06:28:14;;;;;;;;;;;18.50;1.00;;;;;;10361298;28;84974;-53
2022/07/09 06:33:15;;;;;;;;;;;18.50;1.00;;;;;;10342751;28;84927;-48
2022/07/09 06:38:15;;;;;;;;;;;18.80;1.00;;;;;;10358266;28;84538;-60
2022/07/09 06:43:16;;;;;;;;;;;19.00;1.00;;;;;;10355193;28;85001;-44
2022/07/09 06:48:25;;;;;;;;;;;19.20;1.00;;;;;;10351161;28;86751;-49
2022/07/09 06:53:26;;;;;;;;;;;19.40;1.00;;;;;;10360741;28;86549;-47
2022/07/09 06:58:26;;;;;;;;;;;19.60;1.00;;;;;;10379346;28;84826;-50
2022/07/09 07:03:27;;;;;;;;;;;19.80;1.00;;;;;;10370764;28;84253;-48
2022/07/09 07:08:27;;;;;;;;;;;20.00;1.00;;;;;;10365550;28;84328;-48
2022/07/09 07:13:28;;;;;;;;;;;20.20;1.00;;;;;;10371067;28;84113;-51
2022/07/09 07:18:28;;;;;;;;;;;20.20;1.00;;;;;;10370646;28;84961;-48
2022/07/09 07:23:31;;;;;;;;;;;20.50;1.00;;;;;;10370763;28;84701;-48
2022/07/09 07:28:32;;;;;;;;;;;21.00;99.90;;;;;;10370061;28;84076;-49
2022/07/09 07:33:32;;;;;;;;;;;21.10;97.70;;;;;;10352591;28;84000;-51
2022/07/09 07:38:33;;;;;;;;;;;20.90;99.90;;;;;;10352135;28;86110;-49
2022/07/09 07:43:34;;;;;;;;;;;20.90;99.90;;;;;;10369847;28;84711;-49
2022/07/09 07:48:35;;;;;;;;;;;21.10;99.90;;;;;;10369574;28;84017;-51
2022/07/09 07:53:36;;;;;;;;;;;21.30;99.90;;;;;;10369906;28;84923;-49
2022/07/09 07:58:37;;;;;;;;;;;22.10;1.00;;;;;;10367929;28;84119;-49
2022/07/09 08:03:37;;;;;;;;;;;22.80;99.90;;;;;;10368916;28;84883;-53
2022/07/09 08:08:38;;;;;;;;;;;22.60;1.00;;;;;;10368971;28;84856;-53
2022/07/09 08:13:39;;;;;;;;;;;22.50;1.00;;;;;;10369678;28;84888;-51
2022/07/09 08:18:39;;;;;;;;;;;22.80;99.90;;;;;;10369437;28;84204;-50
2022/07/09 08:23:53;;;;;;;;;;;22.60;99.90;;;;;;10368108;28;85032;-54
2022/07/09 08:28:54;;;;;;;;;;;22.80;31.30;;;;;;10368120;28;84957;-49
2022/07/09 08:33:55;;;;;;;;;;;23.10;1.00;;;;;;10350162;28;84894;-52
2022/07/09 08:38:55;;;;;;;;;;;23.40;99.90;;;;;;10368166;28;84596;-48
2022/07/09 08:43:56;;;;;;;;;;;23.60;1.00;;;;;;10367262;28;87086;-49
2022/07/09 08:48:57;;;;;;;;;;;23.90;99.90;;;;;;10366860;28;84121;-49
2022/07/09 08:54:00;;;;;;;;;;;24.40;99.90;;;;;;10367401;28;84996;-53
2022/07/09 08:59:00;;;;;;;;;;;24.70;1.00;;;;;;10367466;28;84207;-49
2022/07/09 09:04:01;;;;;;;;;;;24.70;99.90;;;;;;10367121;28;84851;-46
2022/07/09 09:09:02;;;;;;;;;;;24.40;99.90;;;;;;10367311;28;84477;-47
2022/07/09 09:14:03;;;;;;;;;;;24.70;1.00;;;;;;10367893;28;84805;-54
2022/07/09 09:19:03;;;;;;;;;;;24.40;1.00;;;;;;10367737;28;84821;-49
2022/07/09 09:24:04;;;;;;;;;;;24.20;1.00;;;;;;10366513;28;84137;-53
2022/07/09 09:29:05;;;;;;;;;;;23.70;99.90;;;;;;10366913;28;84956;-50
2022/07/09 09:34:08;;;;;;;;;;;23.40;1.00;;;;;;10367159;28;84373;-49
2022/07/09 09:39:11;;;;;;;;;;;23.20;99.90;;;;;;10366314;28;84888;-48
2022/07/09 09:44:13;;;;;;;;;;;22.90;1.00;;;;;;10366387;28;84074;-52
2022/07/09 09:49:15;;;;;;;;;;;22.60;1.00;;;;;;10366916;28;84407;-51
2022/07/09 09:54:16;;;;;;;;;;;22.40;99.90;;;;;;10367380;28;84063;-52
2022/07/09 09:59:17;;;;;;;;;;;22.50;99.90;;;;;;10366297;28;84961;-49
2022/07/09 10:04:18;;;;;;;;;;;22.40;1.00;;;;;;10366249;28;84246;-51
2022/07/09 10:09:19;;;;;;;;;;;22.50;1.00;;;;;;10331657;28;86023;-49
2022/07/09 10:14:22;;;;;;;;;;;23.00;1.00;;;;;;10365983;28;84985;-49
2022/07/09 10:19:27;;;;;;;;;;;23.20;13.90;;;;;;10367623;28;84826;-48
2022/07/09 10:24:31;;;;;;;;;;;23.50;1.00;;;;;;10373398;28;84341;-51
2022/07/09 10:29:32;;;;;;;;;;;23.40;1.00;;;;;;10372756;28;84910;-48
2022/07/09 10:34:51;;;;;;;;;;;23.00;99.90;;;;;;10370365;28;85098;-49
2022/07/09 10:39:53;;;;;;;;;;;23.00;1.00;;;;;;10371814;28;85424;-56
2022/07/09 10:44:53;;;;;;;;;;;23.00;1.00;;;;;;10373352;28;84497;-57
2022/07/09 10:49:54;;;;;;;;;;;22.80;1.00;;;;;;10468906;22;84931;-58
2022/07/09 10:54:55;;;;;;;;;;;22.60;72.00;;;;;;10462792;27;84130;-61
2022/07/09 10:59:56;;;;;;;;;;;22.40;99.90;;;;;;10486935;27;84112;-51
2022/07/09 11:04:57;;;;;;;;;;;22.50;99.90;;;;;;10466485;27;85240;-50
2022/07/09 11:09:57;;;;;;;;;;;22.50;99.90;;;;;;10429982;28;85023;-49
2022/07/09 11:14:58;;;;;;;;;;;22.60;99.90;;;;;;10422800;27;85018;-53
2022/07/09 11:19:58;;;;;;;;;;;23.90;1.00;;;;;;10427732;27;87189;-50
2022/07/09 11:24:59;;;;;;;;;;;25.40;10.70;;;;;;10431206;27;84846;-54
2022/07/09 11:30:03;;;;;;;;;;;25.80;99.90;;;;;;10423281;27;85241;-52
2022/07/09 11:35:03;;;;;;;;;;;25.40;1.00;;;;;;10427103;27;85081;-55
2022/07/09 11:40:04;;;;;;;;;;;26.30;1.00;;;;;;10432676;27;84412;-48
2022/07/09 11:45:05;;;;;;;;;;;26.10;99.90;;;;;;10432639;27;85702;-53
2022/07/09 11:50:07;;;;;;;;;;;26.20;99.90;;;;;;10467787;27;84940;-50
2022/07/09 11:55:08;;;;;;;;;;;25.90;99.90;;;;;;10427489;27;84260;-51
2022/07/09 12:00:20;;;;;;;;;;;26.30;1.00;;;;;;10425749;27;84925;-48
2022/07/09 12:05:25;;;;;;;;;;;26.90;1.00;;;;;;10428316;27;85449;-53
2022/07/09 12:10:27;;;;;;;;;;;26.30;1.00;;;;;;10430084;27;84243;-51
2022/07/09 12:15:28;;;;;;;;;;;26.30;1.00;;;;;;10429820;27;84110;-57
2022/07/09 12:20:30;;;;;;;;;;;26.10;1.00;;;;;;10427892;27;84112;-49
2022/07/09 12:25:31;;;;;;;;;;;25.90;1.00;;;;;;10431699;27;84253;-53
2022/07/09 12:30:32;;;;;;;;;;;25.70;1.00;;;;;;10442606;27;85323;-50
2022/07/09 12:35:32;;;;;;;;;;;26.30;1.00;;;;;;10431550;27;84001;-54
2022/07/09 12:40:33;;;;;;;;;;;27.10;1.00;;;;;;10426740;27;84356;-52
2022/07/09 12:45:33;;;;;;;;;;;27.50;99.90;;;;;;10446262;27;84197;-54
2022/07/09 12:50:34;;;;;;;;;;;28.00;99.90;;;;;;10444130;27;84040;-53
2022/07/09 12:55:35;;;;;;;;;;;28.70;75.30;;;;;;10440573;27;84764;-56
2022/07/09 13:00:35;;;;;;;;;;;29.50;1.00;;;;;;10436539;27;85407;-55
2022/07/09 13:05:36;;;;;;;;;;;29.50;1.00;;;;;;10434385;27;86573;-53
2022/07/09 13:10:36;;;;;;;;;;;30.60;1.00;;;;;;10428127;27;84889;-51
2022/07/09 13:15:37;;;;;;;;;;;30.40;1.00;;;;;;10431125;27;84893;-53
2022/07/09 13:20:37;;;;;;;;;;;29.60;1.00;;;;;;10442425;27;85362;-51
2022/07/09 13:25:38;;;;;;;;;;;29.20;1.00;;;;;;10425812;27;84708;-53
2022/07/09 13:30:38;;;;;;;;;;;29.40;1.00;;;;;;10432928;27;84729;-49
2022/07/09 13:35:39;;;;;;;;;;;29.40;1.00;;;;;;10432875;27;88299;-52
2022/07/09 13:40:40;;;;;;;;;;;29.20;1.00;;;;;;10449126;27;84848;-53
2022/07/09 13:45:40;;;;;;;;;;;29.40;1.00;;;;;;10425275;27;85286;-52
2022/07/09 13:50:41;;;;;;;;;;;29.50;1.00;;;;;;10426801;27;84830;-53
2022/07/09 13:55:42;;;;;;;;;;;29.10;1.00;;;;;;10430338;27;84203;-54
2022/07/09 14:00:43;;;;;;;;;;;28.20;1.00;;;;;;10422879;27;86061;-50
2022/07/09 14:05:44;;;;;;;;;;;28.00;1.00;;;;;;10425291;27;87383;-52
2022/07/09 14:10:44;;;;;;;;;;;27.60;1.00;;;;;;10452757;27;84380;-53
2022/07/09 14:15:45;;;;;;;;;;;28.10;1.00;;;;;;10434536;27;86190;-50
2022/07/09 14:20:45;;;;;;;;;;;27.90;1.00;;;;;;10436846;27;84929;-55
2022/07/09 14:25:46;;;;;;;;;;;27.20;1.00;;;;;;10431741;27;89655;-59
2022/07/09 14:30:46;;;;;;;;;;;26.60;1.00;;;;;;10442381;27;84506;-52
2022/07/09 14:35:47;;;;;;;;;;;26.40;1.00;;;;;;10448743;27;87741;-55
2022/07/09 14:40:48;;;;;;;;;;;26.00;1.00;;;;;;10437274;27;84967;-53
2022/07/09 14:45:48;;;;;;;;;;;26.00;1.00;;;;;;10430566;27;87273;-49
2022/07/09 14:50:49;;;;;;;;;;;26.00;1.00;;;;;;10439459;27;84937;-51
2022/07/09 14:55:49;;;;;;;;;;;25.90;1.00;;;;;;10434208;27;84973;-50
2022/07/09 15:00:50;;;;;;;;;;;25.70;1.00;;;;;;10433152;27;84847;-54
2022/07/09 15:05:50;;;;;;;;;;;25.20;1.00;;;;;;10435111;27;85448;-56
2022/07/09 15:10:51;;;;;;;;;;;25.50;1.00;;;;;;10447941;27;84990;-53
2022/07/09 15:15:52;;;;;;;;;;;25.40;1.00;;;;;;10442264;27;84272;-54
2022/07/09 15:20:53;;;;;;;;;;;25.10;1.00;;;;;;10449760;27;84228;-49
2022/07/09 15:25:53;;;;;;;;;;;25.20;1.00;;;;;;10428747;27;85042;-52
2022/07/09 15:30:54;;;;;;;;;;;24.90;1.00;;;;;;10429852;27;85086;-53
2022/07/09 15:35:55;;;;;;;;;;;24.90;41.50;;;;;;10420646;27;86478;-52
2022/07/09 15:40:55;;;;;;;;;;;24.80;99.90;;;;;;10439470;27;85553;-53
2022/07/09 15:45:56;;;;;;;;;;;24.70;99.90;;;;;;10436580;27;84474;-51
2022/07/09 15:50:56;;;;;;;;;;;24.70;99.90;;;;;;10431699;27;84950;-52
2022/07/09 15:55:58;;;;;;;;;;;24.40;99.90;;;;;;10439376;27;85388;-53
2022/07/09 16:00:58;;;;;;;;;;;24.00;99.90;;;;;;10473973;27;84381;-58
2022/07/09 16:05:59;;;;;;;;;;;23.70;1.00;;;;;;10419072;28;84339;-58
2022/07/09 16:12:49;;;;;;;;;;;23.50;1.00;;;;;;10410020;28;84197;-52
2022/07/09 16:16:20;;;;;;;;;;;23.50;1.00;;;;;;10419733;27;84752;-53
2022/07/09 16:21:23;;;;;;;;;;;23.30;1.00;;;;;;10416212;28;104949;-49
2022/07/09 16:26:23;;;;;;;;;;;23.20;1.00;;;;;;10409624;28;84063;-52
2022/07/09 16:31:24;;;;;;;;;;;23.00;1.00;;;;;;10409867;28;84902;-54
2022/07/09 16:36:24;;;;;;;;;;;23.00;1.00;;;;;;10410754;28;84207;-52
2022/07/09 16:41:25;;;;;;;;;;;22.90;1.00;;;;;;10412771;28;84016;-48
2022/07/09 16:46:26;;;;;;;;;;;22.70;1.00;;;;;;10445534;22;84848;-48
2022/07/09 16:51:26;;;;;;;;;;;22.60;1.00;;;;;;10472401;27;84261;-54
2022/07/09 16:56:27;;;;;;;;;;;22.80;1.00;;;;;;10472378;27;84967;-51
2022/07/09 17:01:28;;;;;;;;;;;22.40;1.00;;;;;;10494416;27;84123;-50
2022/07/09 17:06:28;;;;;;;;;;;22.40;1.00;;;;;;10468045;27;84166;-47
2022/07/09 17:11:29;;;;;;;;;;;22.20;1.00;;;;;;10492479;27;85087;-52
2022/07/09 17:16:30;;;;;;;;;;;22.10;1.00;;;;;;10493655;27;84904;-51
2022/07/09 17:21:30;;;;;;;;;;;21.80;1.00;;;;;;10477347;27;84940;-49
2022/07/09 17:26:31;;;;;;;;;;;21.70;1.00;;;;;;10450797;28;84008;-47
2022/07/09 17:31:33;;;;;;;;;;;21.60;1.00;;;;;;10457736;27;85386;-51
2022/07/09 17:36:33;;;;;;;;;;;21.60;45.70;;;;;;10468065;27;84285;-51
2022/07/09 17:41:34;;;;;;;;;;;21.60;99.90;;;;;;10432584;27;84880;-50
2022/07/09 17:46:35;;;;;;;;;;;21.30;99.90;;;;;;10449944;27;85577;-50
2022/07/09 17:51:35;;;;;;;;;;;21.10;1.00;;;;;;10492372;27;84262;-49
2022/07/09 17:56:36;;;;;;;;;;;20.90;1.00;;;;;;10485353;27;84832;-52
2022/07/09 18:01:36;;;;;;;;;;;20.90;1.00;;;;;;10468357;27;86964;-52
2022/07/09 18:06:37;;;;;;;;;;;20.70;1.00;;;;;;10488750;27;84999;-52
2022/07/09 18:11:37;;;;;;;;;;;20.30;99.90;;;;;;10487570;27;84223;-53
2022/07/09 18:16:38;;;;;;;;;;;20.10;1.00;;;;;;10492060;27;85268;-50
2022/07/09 18:21:39;;;;;;;;;;;19.90;1.00;;;;;;10479411;27;84267;-52
2022/07/09 18:26:39;;;;;;;;;;;19.70;1.00;;;;;;10495529;27;84016;-51
2022/07/09 18:31:40;;;;;;;;;;;19.70;1.00;;;;;;10475216;27;84100;-52
2022/07/09 18:36:40;;;;;;;;;;;19.60;1.00;;;;;;10514596;27;84291;-48
2022/07/09 18:41:45;;;;;;;;;;;19.40;99.90;;;;;;10505167;27;86333;-49
2022/07/09 18:46:46;;;;;;;;;;;19.30;99.90;;;;;;10509772;27;85220;-49
2022/07/09 18:51:46;;;;;;;;;;;19.20;1.00;;;;;;10491054;27;84857;-52
2022/07/09 18:56:47;;;;;;;;;;;19.00;99.90;;;;;;10504077;27;84248;-47
2022/07/09 19:01:48;;;;;;;;;;;18.90;1.00;;;;;;10506193;27;84992;-51
2022/07/09 19:06:48;;;;;;;;;;;18.70;99.90;;;;;;10509442;27;84746;-48
2022/07/09 19:11:49;;;;;;;;;;;18.60;1.00;;;;;;10509602;27;85098;-47
2022/07/09 19:16:49;;;;;;;;;;;18.40;99.90;;;;;;10486324;27;84993;-54
2022/07/09 19:21:50;;;;;;;;;;;18.30;99.90;;;;;;10523063;27;84190;-55
2022/07/09 19:26:50;;;;;;;;;;;18.30;99.90;;;;;;10497751;27;84240;-50
2022/07/09 19:37:10;;;;;;;;;;;18.00;1.00;;;;;;10486010;27;84455;-57
2022/07/09 19:42:11;;;;;;;;;;;17.90;1.00;;;;;;10487891;27;84312;-60
2022/07/09 19:47:11;;;;;;;;;;;17.80;99.90;;;;;;10489039;27;84401;-59
2022/07/09 19:52:12;;;;;;;;;;;17.60;1.00;;;;;;10475602;27;84282;-54
2022/07/09 19:57:12;;;;;;;;;;;17.50;1.00;;;;;;10481233;27;84565;-57
2022/07/09 20:02:13;;;;;;;;;;;17.40;99.90;;;;;;10488028;27;85072;-48
2022/07/09 20:07:13;;;;;;;;;;;17.40;99.90;;;;;;10483606;27;84657;-51
2022/07/09 20:12:14;;;;;;;;;;;17.30;1.00;;;;;;10474207;27;84299;-53
2022/07/09 20:17:15;;;;;;;;;;;17.20;1.00;;;;;;10477500;27;84882;-51
2022/07/09 20:22:15;;;;;;;;;;;17.10;1.00;;;;;;10498113;27;84076;-47
2022/07/09 20:27:16;;;;;;;;;;;17.10;1.00;;;;;;10494481;27;84171;-51
2022/07/09 20:32:17;;;;;;;;;;;17.00;99.90;;;;;;10495375;27;84124;-46
2022/07/09 20:37:17;;;;;;;;;;;16.90;99.90;;;;;;10503136;27;84067;-48
2022/07/09 20:42:18;;;;;;;;;;;16.90;99.90;;;;;;10494691;27;84377;-48
2022/07/09 20:47:18;;;;;;;;;;;16.70;1.00;;;;;;10476437;27;85893;-56
2022/07/09 20:52:19;;;;;;;;;;;16.70;1.00;;;;;;10494769;27;84016;-46
2022/07/09 20:57:20;;;;;;;;;;;16.60;1.00;;;;;;10493024;27;84084;-48
2022/07/09 21:02:21;;;;;;;;;;;16.60;1.00;;;;;;10492257;27;84801;-46
2022/07/09 21:07:21;;;;;;;;;;;16.50;1.00;;;;;;10503231;27;84067;-52
2022/07/09 21:12:22;;;;;;;;;;;16.50;1.00;;;;;;10474849;27;85956;-52
2022/07/09 21:22:41;;;;;;;;;;;16.20;18.50;;;;;;10524542;27;84921;-49
2022/07/09 21:27:42;;;;;;;;;;;16.10;99.90;;;;;;10535179;27;85291;-48
2022/07/09 21:32:42;;;;;;;;;;;16.10;99.90;;;;;;10535739;27;84892;-49
2022/07/09 21:37:43;;;;;;;;;;;16.10;99.90;;;;;;10532489;27;84698;-50
2022/07/09 21:42:44;;;;;;;;;;;16.20;99.90;;;;;;10490948;27;84837;-47
2022/07/09 21:47:46;;;;;;;;;;;16.10;86.00;;;;;;10473168;27;86051;-47
2022/07/09 21:52:46;;;;;;;;;;;16.00;99.90;;;;;;10493303;27;84233;-49
2022/07/09 21:57:47;;;;;;;;;;;15.80;99.90;;;;;;10501882;27;86731;-48
2022/07/09 22:02:47;;;;;;;;;;;15.70;99.90;;;;;;10492753;27;84965;-52
2022/07/09 22:07:48;;;;;;;;;;;15.70;99.90;;;;;;10525221;27;84841;-53
2022/07/09 22:12:48;;;;;;;;;;;15.60;99.90;;;;;;10516611;27;86119;-50
2022/07/09 22:17:49;;;;;;;;;;;15.50;1.00;;;;;;10539841;27;84840;-50
2022/07/09 22:22:50;;;;;;;;;;;15.50;1.00;;;;;;10510892;27;84895;-49
2022/07/09 22:27:50;;;;;;;;;;;15.50;1.00;;;;;;10479901;27;84159;-49
2022/07/09 22:32:51;;;;;;;;;;;15.50;1.00;;;;;;10498467;27;84909;-51
2022/07/09 22:37:52;;;;;;;;;;;15.60;1.00;;;;;;10501274;27;85078;-51
2022/07/09 22:42:52;;;;;;;;;;;15.70;1.00;;;;;;10498796;27;84035;-55
2022/07/09 22:47:53;;;;;;;;;;;15.60;1.00;;;;;;10493178;22;85961;-44
2022/07/09 22:52:54;;;;;;;;;;;15.60;1.00;;;;;;10495970;27;84102;-47
2022/07/09 22:57:54;;;;;;;;;;;15.70;1.00;;;;;;10497312;27;84132;-49
2022/07/09 23:02:55;;;;;;;;;;;15.80;1.00;;;;;;10497346;27;84252;-48
2022/07/09 23:13:14;;;;;;;;;;;15.80;1.00;;;;;;10497057;27;85046;-47
2022/07/09 23:18:15;;;;;;;;;;;15.70;1.00;;;;;;10496345;27;84043;-53
2022/07/09 23:23:16;;;;;;;;;;;15.60;1.00;;;;;;10463130;27;85119;-50
2022/07/09 23:28:16;;;;;;;;;;;15.50;1.00;;;;;;10453506;27;85162;-49
2022/07/09 23:33:17;;;;;;;;;;;15.50;1.00;;;;;;10454276;28;84791;-52
2022/07/09 23:38:17;;;;;;;;;;;15.50;1.00;;;;;;10480671;27;84202;-48
2022/07/09 23:43:18;;;;;;;;;;;15.60;1.00;;;;;;10497032;27;84029;-49
2022/07/09 23:48:18;;;;;;;;;;;15.60;1.00;;;;;;10495770;27;84239;-48
2022/07/09 23:53:19;;;;;;;;;;;15.50;1.00;;;;;;10481249;27;84976;-48
2022/07/09 23:58:20;;;;;;;;;;;15.50;1.00;;;;;;10455444;28;84876;-48
